createdAt,value
2018-02-23T00:00:08.510Z,13.23
2018-02-23T00:00:42.361Z,15.55
2018-02-23T00:01:16.216Z,14.95
2018-02-23T00:01:50.377Z,14.15
2018-02-23T00:02:24.408Z,17.37
2018-02-23T00:02:58.327Z,15.80
2018-02-23T00:03:32.198Z,16.25
2018-02-23T00:04:06.047Z,13.73
2018-02-23T00:04:40.064Z,14.77
2018-02-23T00:05:13.925Z,13.95
2018-02-23T00:05:47.778Z,16.95
2018-02-23T00:06:21.950Z,15.18
2018-02-23T00:06:55.812Z,14.57
2018-02-23T00:07:35.706Z,13.05
2018-02-23T00:08:09.828Z,15.25
2018-02-23T00:08:43.758Z,14.32
2018-02-23T00:09:17.656Z,14.45
2018-02-23T00:09:52.039Z,11.48
2018-02-23T00:10:26.877Z,14.20
2018-02-23T00:11:01.458Z,14.23
2018-02-23T00:11:35.877Z,14.32
2018-02-23T00:12:10.022Z,14.68
2018-02-23T00:12:44.601Z,12.68
2018-02-23T00:13:18.838Z,16.92
2018-02-23T00:13:52.837Z,17.60
2018-02-23T00:14:27.409Z,15.80
2018-02-23T00:15:01.582Z,12.73
2018-02-23T00:15:36.777Z,16.08
2018-02-23T00:16:10.879Z,13.62
2018-02-23T00:16:44.834Z,12.45
2018-02-23T00:17:18.977Z,15.18
2018-02-23T00:17:52.884Z,15.73
2018-02-23T00:18:26.842Z,16.60
2018-02-23T00:19:00.684Z,14.05
2018-02-23T00:19:34.593Z,13.68
2018-02-23T00:20:08.539Z,15.27
2018-02-23T00:20:42.398Z,15.70
2018-02-23T00:21:16.488Z,13.77
2018-02-23T00:21:50.573Z,13.40
2018-02-23T00:22:30.575Z,15.20
2018-02-23T00:23:04.444Z,21.40
2018-02-23T00:23:38.327Z,15.45
2018-02-23T00:24:12.357Z,15.50
2018-02-23T00:24:46.214Z,14.77
2018-02-23T00:25:20.154Z,17.25
2018-02-23T00:25:54.005Z,17.45
2018-02-23T00:26:28.158Z,13.70
2018-02-23T00:27:02.013Z,19.02
2018-02-23T00:27:35.877Z,14.85
2018-02-23T00:28:09.844Z,17.58
2018-02-23T00:28:43.758Z,12.98
2018-02-23T00:29:17.728Z,15.48
2018-02-23T00:29:51.651Z,16.80
2018-02-23T00:30:25.513Z,15.77
2018-02-23T00:30:59.510Z,16.10
2018-02-23T00:31:33.363Z,17.35
2018-02-23T00:32:07.222Z,13.38
2018-02-23T00:32:41.118Z,17.77
2018-02-23T00:33:15.234Z,16.00
2018-02-23T00:33:49.131Z,16.42
2018-02-23T00:34:23.193Z,17.05
2018-02-23T00:34:57.068Z,13.85
2018-02-23T00:35:30.927Z,16.77
2018-02-23T00:36:04.889Z,17.80
2018-02-23T00:36:38.749Z,15.25
2018-02-23T00:37:12.772Z,16.00
2018-02-23T00:37:46.639Z,15.20
2018-02-23T00:38:20.659Z,15.48
2018-02-23T00:38:54.534Z,16.73
2018-02-23T00:39:28.392Z,14.13
2018-02-23T00:40:02.275Z,13.43
2018-02-23T00:40:36.136Z,21.50
2018-02-23T00:41:09.994Z,16.08
2018-02-23T00:41:43.844Z,16.42
2018-02-23T00:42:17.825Z,13.15
2018-02-23T00:42:51.694Z,14.50
2018-02-23T00:43:25.693Z,17.40
2018-02-23T00:43:59.582Z,14.77
2018-02-23T00:44:33.445Z,17.40
2018-02-23T00:45:07.512Z,18.73
2018-02-23T00:45:41.445Z,15.60
2018-02-23T00:46:15.408Z,16.85
2018-02-23T00:46:49.298Z,16.25
2018-02-23T00:47:23.193Z,17.17
2018-02-23T00:47:57.093Z,16.17
2018-02-23T00:48:31.086Z,15.77
2018-02-23T00:49:04.961Z,15.57
2018-02-23T00:49:39.092Z,15.50
2018-02-23T00:50:13.107Z,21.27
2018-02-23T00:50:46.957Z,15.02
2018-02-23T00:51:20.870Z,14.40
2018-02-23T00:51:54.765Z,14.98
2018-02-23T00:52:28.624Z,22.58
2018-02-23T00:53:02.659Z,21.35
2018-02-23T00:53:36.512Z,14.98
2018-02-23T00:54:10.554Z,16.30
2018-02-23T00:54:44.414Z,15.45
2018-02-23T00:55:18.289Z,15.73
2018-02-23T00:55:52.161Z,18.05
2018-02-23T00:56:26.027Z,18.98
2018-02-23T00:56:59.891Z,16.40
2018-02-23T00:57:33.749Z,16.27
2018-02-23T00:58:07.614Z,18.98
2018-02-23T00:58:41.583Z,15.90
2018-02-23T00:59:15.465Z,13.52
2018-02-23T00:59:49.608Z,17.23
2018-02-23T01:00:23.506Z,16.00
2018-02-23T01:00:57.373Z,14.75
2018-02-23T01:01:31.221Z,14.25
2018-02-23T01:02:05.195Z,13.70
2018-02-23T01:02:39.045Z,20.48
2018-02-23T01:03:13.121Z,16.42
2018-02-23T01:03:46.986Z,16.23
2018-02-23T01:04:20.870Z,15.02
2018-02-23T01:04:54.871Z,13.23
2018-02-23T01:05:28.773Z,15.10
2018-02-23T01:06:02.642Z,14.13
2018-02-23T01:06:36.655Z,20.88
2018-02-23T01:07:10.554Z,18.80
2018-02-23T01:07:44.455Z,16.70
2018-02-23T01:08:18.354Z,19.00
2018-02-23T01:08:52.346Z,17.40
2018-02-23T01:09:26.373Z,13.52
2018-02-23T01:10:00.244Z,14.07
2018-02-23T01:10:34.131Z,19.08
2018-02-23T01:11:07.986Z,15.40
2018-02-23T01:11:41.856Z,15.45
2018-02-23T01:12:15.720Z,16.37
2018-02-23T01:12:49.568Z,21.50
2018-02-23T01:13:23.712Z,18.05
2018-02-23T01:13:57.809Z,17.15
2018-02-23T01:14:31.728Z,17.92
2018-02-23T01:15:05.705Z,15.98
2018-02-23T01:15:39.564Z,17.60
2018-02-23T01:16:13.592Z,20.67
2018-02-23T01:16:47.485Z,19.87
2018-02-23T01:17:21.338Z,16.92
2018-02-23T01:17:55.374Z,16.65
2018-02-23T01:18:29.238Z,17.65
2018-02-23T01:19:03.380Z,16.75
2018-02-23T01:19:37.589Z,17.35
2018-02-23T01:20:11.454Z,16.60
2018-02-23T01:20:45.351Z,15.00
2018-02-23T01:21:19.374Z,17.55
2018-02-23T01:21:53.253Z,18.08
2018-02-23T01:22:27.274Z,18.15
2018-02-23T01:23:01.260Z,16.40
2018-02-23T01:23:35.261Z,19.25
2018-02-23T01:24:09.154Z,19.60
2018-02-23T01:24:43.257Z,14.45
2018-02-23T01:25:17.259Z,19.30
2018-02-23T01:25:51.137Z,16.70
2018-02-23T01:26:25.248Z,17.50
2018-02-23T01:26:59.158Z,17.30
2018-02-23T01:27:33.030Z,18.87
2018-02-23T01:28:07.038Z,14.57
2018-02-23T01:28:40.892Z,15.63
2018-02-23T01:29:14.763Z,20.92
2018-02-23T01:29:48.628Z,19.60
2018-02-23T01:30:22.477Z,15.07
2018-02-23T01:30:56.362Z,15.30
2018-02-23T01:31:30.409Z,17.75
2018-02-23T01:32:04.262Z,16.83
2018-02-23T01:32:38.118Z,19.20
2018-02-23T01:33:11.990Z,15.85
2018-02-23T01:33:45.989Z,12.93
2018-02-23T01:34:19.832Z,16.37
2018-02-23T01:34:53.714Z,14.40
2018-02-23T01:35:27.577Z,14.43
2018-02-23T01:36:01.439Z,16.08
2018-02-23T01:36:35.462Z,15.65
2018-02-23T01:37:09.315Z,18.23
2018-02-23T01:37:43.562Z,15.25
2018-02-23T01:38:17.561Z,20.77
2018-02-23T01:38:51.436Z,18.12
2018-02-23T01:39:25.281Z,15.23
2018-02-23T01:39:59.364Z,19.37
2018-02-23T01:40:33.242Z,16.35
2018-02-23T01:41:07.118Z,19.02
2018-02-23T01:41:40.977Z,18.08
2018-02-23T01:42:14.929Z,19.70
2018-02-23T01:42:48.780Z,15.82
2018-02-23T01:43:22.626Z,15.65
2018-02-23T01:43:56.516Z,18.27
2018-02-23T01:44:30.622Z,16.50
2018-02-23T01:45:04.705Z,13.00
2018-02-23T01:45:38.582Z,18.92
2018-02-23T01:46:12.457Z,14.95
2018-02-23T01:46:46.608Z,14.65
2018-02-23T01:47:20.590Z,15.63
2018-02-23T01:47:54.443Z,14.30
2018-02-23T01:48:28.320Z,21.75
2018-02-23T01:49:02.203Z,17.27
2018-02-23T01:49:36.082Z,17.20
2018-02-23T01:50:09.949Z,18.42
2018-02-23T01:50:49.685Z,18.60
2018-02-23T01:51:23.550Z,16.65
2018-02-23T01:51:57.499Z,13.48
2018-02-23T01:52:31.348Z,15.45
2018-02-23T01:53:05.302Z,17.92
2018-02-23T01:53:39.149Z,18.85
2018-02-23T01:54:13.019Z,15.93
2018-02-23T01:54:47.085Z,15.93
2018-02-23T01:55:20.982Z,16.77
2018-02-23T01:55:54.873Z,15.25
2018-02-23T01:56:28.743Z,18.70
2018-02-23T01:57:02.687Z,17.40
2018-02-23T01:57:36.554Z,18.23
2018-02-23T01:58:10.418Z,16.65
2018-02-23T01:58:44.350Z,20.67
2018-02-23T01:59:18.238Z,18.08
2018-02-23T01:59:52.237Z,16.17
2018-02-23T02:00:26.239Z,18.15
2018-02-23T02:01:00.239Z,22.35
2018-02-23T02:01:34.099Z,19.10
2018-02-23T02:02:08.131Z,19.08
2018-02-23T02:02:42.000Z,20.50
2018-02-23T02:03:15.904Z,16.92
2018-02-23T02:03:49.753Z,16.83
2018-02-23T02:04:23.816Z,20.92
2018-02-23T02:04:57.725Z,20.55
2018-02-23T02:05:31.611Z,17.80
2018-02-23T02:06:05.701Z,17.55
2018-02-23T02:06:39.699Z,20.05
2018-02-23T02:07:13.561Z,19.98
2018-02-23T02:07:47.596Z,16.30
2018-02-23T02:08:21.458Z,16.80
2018-02-23T02:08:55.490Z,17.02
2018-02-23T02:09:29.406Z,18.10
2018-02-23T02:10:03.375Z,18.48
2018-02-23T02:10:37.252Z,17.62
2018-02-23T02:11:11.476Z,19.15
2018-02-23T02:11:45.369Z,21.48
2018-02-23T02:12:19.370Z,17.62
2018-02-23T02:12:53.233Z,20.65
2018-02-23T02:13:27.101Z,20.92
2018-02-23T02:14:01.077Z,25.25
2018-02-23T02:14:35.277Z,23.23
2018-02-23T02:15:09.260Z,19.67
2018-02-23T02:15:43.179Z,15.15
2018-02-23T02:16:17.171Z,20.20
2018-02-23T02:16:51.048Z,19.00
2018-02-23T02:17:24.905Z,22.45
2018-02-23T02:17:58.762Z,22.55
2018-02-23T02:18:32.630Z,23.85
2018-02-23T02:19:06.494Z,20.50
2018-02-23T02:19:40.349Z,18.75
2018-02-23T02:20:14.320Z,16.73
2018-02-23T02:20:48.184Z,17.00
2018-02-23T02:21:22.954Z,18.23
2018-02-23T02:21:56.819Z,19.65
2018-02-23T02:22:30.713Z,21.15
2018-02-23T02:23:04.813Z,19.50
2018-02-23T02:23:38.706Z,20.37
2018-02-23T02:24:12.560Z,22.00
2018-02-23T02:24:46.748Z,20.17
2018-02-23T02:25:20.698Z,21.08
2018-02-23T02:25:54.597Z,18.00
2018-02-23T02:26:28.452Z,22.87
2018-02-23T02:27:02.393Z,21.42
2018-02-23T02:27:36.248Z,23.27
2018-02-23T02:28:10.230Z,19.60
2018-02-23T02:28:44.097Z,19.62
2018-02-23T02:29:17.961Z,18.80
2018-02-23T02:29:51.962Z,24.87
2018-02-23T02:30:25.873Z,19.83
2018-02-23T02:30:59.875Z,20.25
2018-02-23T02:31:33.745Z,22.55
2018-02-23T02:32:07.854Z,18.50
2018-02-23T02:32:41.851Z,21.70
2018-02-23T02:33:15.712Z,19.85
2018-02-23T02:33:49.745Z,23.98
2018-02-23T02:34:23.600Z,25.15
2018-02-23T02:34:57.744Z,19.87
2018-02-23T02:35:31.639Z,19.75
2018-02-23T02:36:05.581Z,20.77
2018-02-23T02:36:39.458Z,23.58
2018-02-23T02:37:13.527Z,22.67
2018-02-23T02:37:47.528Z,23.15
2018-02-23T02:38:21.406Z,20.80
2018-02-23T02:38:55.520Z,25.60
2018-02-23T02:39:29.393Z,20.33
2018-02-23T02:40:03.304Z,21.67
2018-02-23T02:40:37.159Z,22.05
2018-02-23T02:41:11.040Z,20.08
2018-02-23T02:41:44.921Z,23.30
2018-02-23T02:42:18.794Z,24.45
2018-02-23T02:42:52.655Z,21.40
2018-02-23T02:43:26.786Z,22.87
2018-02-23T02:44:00.673Z,19.73
2018-02-23T02:44:34.526Z,21.75
2018-02-23T02:45:08.370Z,24.85
2018-02-23T02:45:42.227Z,21.37
2018-02-23T02:46:16.464Z,21.23
2018-02-23T02:46:50.313Z,25.52
2018-02-23T02:47:24.173Z,21.40
2018-02-23T02:47:58.033Z,20.35
2018-02-23T02:48:31.893Z,23.87
2018-02-23T02:49:06.066Z,18.48
2018-02-23T02:49:39.931Z,28.17
2018-02-23T02:50:13.950Z,20.35
2018-02-23T02:50:47.832Z,22.58
2018-02-23T02:51:21.726Z,21.75
2018-02-23T02:51:55.725Z,21.40
2018-02-23T02:52:29.729Z,24.45
2018-02-23T02:53:03.721Z,22.50
2018-02-23T02:53:37.750Z,26.12
2018-02-23T02:54:11.611Z,23.80
2018-02-23T02:54:45.608Z,20.85
2018-02-23T02:55:19.466Z,26.30
2018-02-23T02:55:53.517Z,26.00
2018-02-23T02:56:27.511Z,24.30
2018-02-23T02:57:01.382Z,25.60
2018-02-23T02:57:35.233Z,20.80
2018-02-23T02:58:09.135Z,22.13
2018-02-23T02:58:42.994Z,27.77
2018-02-23T02:59:16.859Z,25.77
2018-02-23T02:59:50.883Z,25.58
2018-02-23T03:00:24.973Z,26.45
2018-02-23T03:00:58.973Z,22.85
2018-02-23T03:01:32.857Z,25.80
2018-02-23T03:02:06.761Z,26.85
2018-02-23T03:02:40.625Z,28.87
2018-02-23T03:03:14.593Z,28.05
2018-02-23T03:03:48.683Z,25.85
2018-02-23T03:04:22.555Z,25.10
2018-02-23T03:04:56.413Z,21.40
2018-02-23T03:05:30.543Z,22.10
2018-02-23T03:06:04.544Z,21.98
2018-02-23T03:06:38.429Z,23.73
2018-02-23T03:07:12.429Z,22.80
2018-02-23T03:07:46.438Z,21.02
2018-02-23T03:08:20.310Z,27.25
2018-02-23T03:08:54.174Z,25.45
2018-02-23T03:09:28.030Z,23.40
2018-02-23T03:10:01.918Z,22.00
2018-02-23T03:10:35.807Z,26.50
2018-02-23T03:11:09.665Z,25.83
2018-02-23T03:11:43.533Z,23.12
2018-02-23T03:12:17.385Z,25.40
2018-02-23T03:12:51.426Z,24.33
2018-02-23T03:13:25.283Z,23.80
2018-02-23T03:13:59.136Z,25.62
2018-02-23T03:14:33.009Z,28.25
2018-02-23T03:15:06.980Z,24.50
2018-02-23T03:15:41.073Z,24.65
2018-02-23T03:16:15.068Z,21.25
2018-02-23T03:16:48.937Z,23.73
2018-02-23T03:17:22.863Z,28.12
2018-02-23T03:17:56.853Z,25.77
2018-02-23T03:18:30.708Z,24.60
2018-02-23T03:19:04.585Z,24.12
2018-02-23T03:19:38.746Z,26.10
2018-02-23T03:20:12.745Z,24.37
2018-02-23T03:20:46.745Z,28.80
2018-02-23T03:21:20.742Z,25.02
2018-02-23T03:21:54.595Z,24.48
2018-02-23T03:22:28.456Z,25.17
2018-02-23T03:23:02.324Z,25.55
2018-02-23T03:23:36.194Z,25.85
2018-02-23T03:24:10.439Z,26.15
2018-02-23T03:24:44.310Z,25.05
2018-02-23T03:25:18.157Z,24.52
2018-02-23T03:25:52.097Z,22.27
2018-02-23T03:26:25.968Z,23.87
2018-02-23T03:26:59.860Z,23.58
2018-02-23T03:27:33.894Z,31.00
2018-02-23T03:28:07.748Z,23.20
2018-02-23T03:28:41.594Z,20.00
2018-02-23T03:29:15.440Z,29.37
2018-02-23T03:29:49.309Z,21.50
2018-02-23T03:30:23.171Z,27.15
2018-02-23T03:30:57.034Z,26.20
2018-02-23T03:31:30.895Z,23.35
2018-02-23T03:32:04.794Z,23.30
2018-02-23T03:32:38.652Z,27.33
2018-02-23T03:33:12.516Z,27.23
2018-02-23T03:33:46.534Z,27.75
2018-02-23T03:34:20.413Z,29.35
2018-02-23T03:34:54.440Z,27.95
2018-02-23T03:35:28.300Z,27.70
2018-02-23T03:36:02.149Z,23.05
2018-02-23T03:36:36.025Z,30.20
2018-02-23T03:37:10.116Z,24.25
2018-02-23T03:37:44.113Z,21.58
2018-02-23T03:38:18.120Z,22.62
2018-02-23T03:38:51.985Z,24.40
2018-02-23T03:39:26.006Z,24.12
2018-02-23T03:39:59.855Z,22.98
2018-02-23T03:40:33.718Z,24.02
2018-02-23T03:41:07.689Z,23.15
2018-02-23T03:41:41.686Z,24.35
2018-02-23T03:42:15.751Z,22.65
2018-02-23T03:42:49.629Z,23.10
2018-02-23T03:43:23.488Z,26.17
2018-02-23T03:43:57.366Z,24.63
2018-02-23T03:44:31.217Z,25.33
2018-02-23T03:45:05.142Z,26.73
2018-02-23T03:45:39.003Z,23.58
2018-02-23T03:46:12.882Z,25.02
2018-02-23T03:46:46.948Z,25.65
2018-02-23T03:47:20.969Z,25.88
2018-02-23T03:47:54.819Z,24.63
2018-02-23T03:48:28.690Z,25.02
2018-02-23T03:49:02.570Z,22.00
2018-02-23T03:49:37.346Z,26.92
2018-02-23T03:50:11.348Z,25.90
2018-02-23T03:50:45.203Z,24.95
2018-02-23T03:51:19.073Z,23.23
2018-02-23T03:51:53.046Z,23.87
2018-02-23T03:52:27.141Z,23.92
2018-02-23T03:53:01.037Z,25.17
2018-02-23T03:53:34.912Z,26.92
2018-02-23T03:54:08.776Z,24.65
2018-02-23T03:54:42.711Z,25.30
2018-02-23T03:55:16.582Z,22.33
2018-02-23T03:55:50.431Z,26.12
2018-02-23T03:56:24.405Z,25.00
2018-02-23T03:56:58.274Z,26.08
2018-02-23T03:57:32.173Z,24.63
2018-02-23T03:58:06.091Z,27.50
2018-02-23T03:58:39.951Z,23.70
2018-02-23T03:59:13.806Z,26.30
2018-02-23T03:59:47.766Z,27.92
2018-02-23T04:00:21.630Z,25.27
2018-02-23T04:00:55.489Z,31.08
2018-02-23T04:01:29.341Z,28.85
2018-02-23T04:02:03.244Z,26.75
2018-02-23T04:02:37.143Z,24.80
2018-02-23T04:03:11.001Z,26.60
2018-02-23T04:03:44.919Z,24.50
2018-02-23T04:04:18.785Z,26.62
2018-02-23T04:04:52.645Z,27.17
2018-02-23T04:05:26.520Z,30.33
2018-02-23T04:06:00.427Z,24.15
2018-02-23T04:06:34.272Z,24.70
2018-02-23T04:07:08.319Z,27.90
2018-02-23T04:07:42.302Z,24.75
2018-02-23T04:08:16.407Z,27.50
2018-02-23T04:08:50.508Z,27.75
2018-02-23T04:09:24.412Z,28.65
2018-02-23T04:09:58.266Z,28.87
2018-02-23T04:10:32.363Z,24.55
2018-02-23T04:11:06.224Z,31.20
2018-02-23T04:11:40.077Z,26.10
2018-02-23T04:12:14.080Z,25.48
2018-02-23T04:12:47.937Z,30.35
2018-02-23T04:13:21.787Z,33.25
2018-02-23T04:13:55.640Z,26.40
2018-02-23T04:14:29.487Z,27.48
2018-02-23T04:15:03.765Z,24.27
2018-02-23T04:15:37.862Z,30.83
2018-02-23T04:16:11.760Z,28.58
2018-02-23T04:16:45.751Z,25.02
2018-02-23T04:17:19.633Z,22.85
2018-02-23T04:17:53.644Z,24.75
2018-02-23T04:18:27.587Z,26.00
2018-02-23T04:19:01.412Z,28.55
2018-02-23T04:19:35.290Z,24.33
2018-02-23T04:20:09.443Z,28.40
2018-02-23T04:20:43.300Z,23.50
2018-02-23T04:21:17.169Z,26.70
2018-02-23T04:21:51.325Z,26.12
2018-02-23T04:22:25.181Z,24.10
2018-02-23T04:22:59.120Z,30.50
2018-02-23T04:23:33.013Z,27.02
2018-02-23T04:24:07.007Z,28.40
2018-02-23T04:24:40.857Z,31.87
2018-02-23T04:25:14.796Z,26.87
2018-02-23T04:25:48.661Z,34.08
2018-02-23T04:26:22.525Z,29.52
2018-02-23T04:26:56.401Z,24.25
2018-02-23T04:27:30.608Z,24.60
2018-02-23T04:28:04.477Z,34.72
2018-02-23T04:28:38.526Z,32.22
2018-02-23T04:29:12.397Z,27.95
2018-02-23T04:29:46.275Z,27.92
2018-02-23T04:30:20.268Z,25.40
2018-02-23T04:30:54.128Z,31.85
2018-02-23T04:31:27.993Z,27.40
2018-02-23T04:32:01.852Z,32.60
2018-02-23T04:32:35.753Z,26.75
2018-02-23T04:33:09.618Z,26.48
2018-02-23T04:33:43.513Z,26.62
2018-02-23T04:34:17.433Z,33.88
2018-02-23T04:34:51.289Z,29.67
2018-02-23T04:35:25.144Z,30.67
2018-02-23T04:35:59.327Z,25.85
2018-02-23T04:36:33.210Z,28.42
2018-02-23T04:37:07.077Z,31.55
2018-02-23T04:37:41.108Z,32.60
2018-02-23T04:38:14.982Z,24.58
2018-02-23T04:38:48.891Z,29.92
2018-02-23T04:39:22.799Z,29.08
2018-02-23T04:39:56.661Z,31.77
2018-02-23T04:40:30.537Z,27.45
2018-02-23T04:41:04.393Z,27.62
2018-02-23T04:41:38.376Z,28.62
2018-02-23T04:42:12.229Z,31.48
2018-02-23T04:42:46.168Z,30.37
2018-02-23T04:43:20.092Z,31.40
2018-02-23T04:43:54.153Z,31.10
2018-02-23T04:44:28.163Z,30.17
2018-02-23T04:45:02.050Z,29.27
2018-02-23T04:45:35.885Z,24.77
2018-02-23T04:46:09.737Z,25.25
2018-02-23T04:46:43.601Z,29.35
2018-02-23T04:47:17.448Z,29.73
2018-02-23T04:47:51.305Z,30.27
2018-02-23T04:48:25.340Z,29.50
2018-02-23T04:48:59.203Z,32.25
2018-02-23T04:49:33.224Z,29.20
2018-02-23T04:50:07.078Z,29.60
2018-02-23T04:50:41.013Z,30.58
2018-02-23T04:51:14.941Z,25.88
2018-02-23T04:51:49.010Z,32.63
2018-02-23T04:52:23.019Z,35.67
2018-02-23T04:52:56.880Z,30.52
2018-02-23T04:53:30.921Z,34.25
2018-02-23T04:54:04.769Z,29.98
2018-02-23T04:54:38.617Z,31.08
2018-02-23T04:55:12.486Z,30.70
2018-02-23T04:55:46.352Z,27.48
2018-02-23T04:56:20.201Z,28.40
2018-02-23T04:56:54.059Z,27.95
2018-02-23T04:57:27.925Z,33.83
2018-02-23T04:58:01.785Z,30.30
2018-02-23T04:58:35.665Z,30.70
2018-02-23T04:59:09.512Z,28.33
2018-02-23T04:59:43.537Z,33.13
2018-02-23T05:00:17.394Z,34.38
2018-02-23T05:00:51.263Z,31.73
2018-02-23T05:01:25.122Z,32.10
2018-02-23T05:01:59.017Z,31.85
2018-02-23T05:02:32.883Z,27.62
2018-02-23T05:03:06.781Z,31.87
2018-02-23T05:03:40.647Z,32.42
2018-02-23T05:04:14.614Z,30.33
2018-02-23T05:04:48.474Z,35.97
2018-02-23T05:05:22.334Z,30.75
2018-02-23T05:05:56.198Z,36.42
2018-02-23T05:06:30.065Z,35.38
2018-02-23T05:07:04.096Z,30.05
2018-02-23T05:07:37.957Z,31.55
2018-02-23T05:08:11.965Z,31.33
2018-02-23T05:08:45.851Z,31.95
2018-02-23T05:09:19.704Z,28.27
2018-02-23T05:09:53.561Z,32.40
2018-02-23T05:10:27.652Z,26.87
2018-02-23T05:11:01.671Z,32.88
2018-02-23T05:11:35.523Z,28.60
2018-02-23T05:12:09.554Z,33.88
2018-02-23T05:12:43.406Z,29.80
2018-02-23T05:13:17.268Z,39.42
2018-02-23T05:13:51.141Z,31.17
2018-02-23T05:14:25.022Z,30.20
2018-02-23T05:14:58.915Z,30.35
2018-02-23T05:15:32.784Z,31.55
2018-02-23T05:16:06.706Z,33.72
2018-02-23T05:16:40.562Z,28.45
2018-02-23T05:17:14.701Z,30.65
2018-02-23T05:17:48.682Z,28.50
2018-02-23T05:18:22.625Z,35.15
2018-02-23T05:18:56.499Z,30.30
2018-02-23T05:19:30.489Z,34.67
2018-02-23T05:20:04.384Z,29.65
2018-02-23T05:20:38.236Z,33.85
2018-02-23T05:21:12.108Z,30.10
2018-02-23T05:21:45.973Z,32.95
2018-02-23T05:22:19.830Z,30.40
2018-02-23T05:22:53.686Z,30.95
2018-02-23T05:23:27.562Z,32.45
2018-02-23T05:24:01.493Z,33.35
2018-02-23T05:24:35.440Z,31.48
2018-02-23T05:25:09.444Z,30.42
2018-02-23T05:25:43.745Z,25.98
2018-02-23T05:26:17.604Z,32.80
2018-02-23T05:26:51.742Z,35.33
2018-02-23T05:27:25.636Z,34.63
2018-02-23T05:27:59.501Z,34.47
2018-02-23T05:28:33.527Z,36.15
2018-02-23T05:29:07.396Z,31.20
2018-02-23T05:29:41.432Z,30.98
2018-02-23T05:30:15.310Z,40.35
2018-02-23T05:30:49.176Z,31.15
2018-02-23T05:31:23.109Z,38.10
2018-02-23T05:31:56.986Z,30.00
2018-02-23T05:32:31.009Z,35.13
2018-02-23T05:33:04.868Z,37.75
2018-02-23T05:33:38.806Z,33.70
2018-02-23T05:34:12.701Z,33.72
2018-02-23T05:34:46.585Z,30.88
2018-02-23T05:35:20.474Z,33.17
2018-02-23T05:35:54.355Z,34.63
2018-02-23T05:36:28.219Z,34.50
2018-02-23T05:37:02.189Z,38.42
2018-02-23T05:37:36.162Z,32.72
2018-02-23T05:38:10.025Z,29.95
2018-02-23T05:38:43.876Z,30.85
2018-02-23T05:39:17.749Z,32.67
2018-02-23T05:39:51.618Z,31.75
2018-02-23T05:40:25.474Z,31.45
2018-02-23T05:40:59.481Z,35.95
2018-02-23T05:41:33.341Z,28.87
2018-02-23T05:42:07.906Z,29.20
2018-02-23T05:42:41.765Z,36.20
2018-02-23T05:43:15.622Z,28.30
2018-02-23T05:43:49.637Z,37.72
2018-02-23T05:44:23.630Z,35.42
2018-02-23T05:44:57.493Z,36.17
2018-02-23T05:45:31.352Z,36.45
2018-02-23T05:46:05.238Z,40.33
2018-02-23T05:46:39.109Z,31.62
2018-02-23T05:47:12.967Z,33.53
2018-02-23T05:47:46.842Z,39.55
2018-02-23T05:48:21.302Z,32.35
2018-02-23T05:48:55.323Z,34.85
2018-02-23T05:49:29.293Z,35.75
2018-02-23T05:50:03.288Z,38.55
2018-02-23T05:50:37.162Z,31.90
2018-02-23T05:51:11.184Z,34.38
2018-02-23T05:51:45.169Z,35.20
2018-02-23T05:52:19.041Z,38.53
2018-02-23T05:52:53.085Z,32.50
2018-02-23T05:53:26.950Z,34.03
2018-02-23T05:54:00.912Z,33.45
2018-02-23T05:54:34.863Z,34.45
2018-02-23T05:55:08.760Z,30.05
2018-02-23T05:55:42.865Z,33.95
2018-02-23T05:56:16.745Z,31.75
2018-02-23T05:56:50.627Z,37.63
2018-02-23T05:57:24.490Z,33.40
2018-02-23T05:57:58.345Z,32.72
2018-02-23T05:58:32.452Z,39.65
2018-02-23T05:59:06.335Z,33.38
2018-02-23T05:59:40.200Z,34.40
2018-02-23T06:00:14.066Z,36.13
2018-02-23T06:00:47.938Z,32.78
2018-02-23T06:01:21.785Z,39.13
2018-02-23T06:01:55.642Z,38.25
2018-02-23T06:02:29.512Z,38.08
2018-02-23T06:03:03.410Z,44.20
2018-02-23T06:03:37.399Z,36.55
2018-02-23T06:04:11.418Z,40.88
2018-02-23T06:04:45.296Z,39.92
2018-02-23T06:05:19.280Z,36.33
2018-02-23T06:05:53.162Z,35.95
2018-02-23T06:06:27.040Z,37.58
2018-02-23T06:07:00.909Z,37.60
2018-02-23T06:07:34.766Z,34.78
2018-02-23T06:08:08.668Z,38.15
2018-02-23T06:08:42.667Z,34.92
2018-02-23T06:09:16.557Z,42.20
2018-02-23T06:09:50.466Z,37.83
2018-02-23T06:10:24.328Z,33.45
2018-02-23T06:10:58.198Z,36.65
2018-02-23T06:11:32.076Z,38.20
2018-02-23T06:12:05.929Z,37.97
2018-02-23T06:12:39.824Z,39.15
2018-02-23T06:13:13.835Z,41.22
2018-02-23T06:13:47.816Z,36.47
2018-02-23T06:14:21.867Z,37.67
2018-02-23T06:14:55.819Z,37.90
2018-02-23T06:15:35.387Z,36.10
2018-02-23T06:16:15.126Z,41.33
2018-02-23T06:16:49.070Z,41.28
2018-02-23T06:17:28.784Z,36.47
2018-02-23T06:18:07.716Z,34.13
2018-02-23T06:18:47.572Z,40.72
2018-02-23T06:19:27.253Z,44.03
2018-02-23T06:20:07.101Z,40.33
2018-02-23T06:20:40.962Z,41.53
2018-02-23T06:21:14.901Z,38.80
2018-02-23T06:21:48.761Z,41.00
2018-02-23T06:22:22.696Z,37.42
2018-02-23T06:22:56.840Z,37.30
2018-02-23T06:23:30.702Z,39.13
2018-02-23T06:24:04.799Z,40.42
2018-02-23T06:24:38.685Z,39.08
2018-02-23T06:25:12.585Z,40.90
2018-02-23T06:25:46.568Z,38.22
2018-02-23T06:26:20.435Z,34.63
2018-02-23T06:26:54.511Z,38.00
2018-02-23T06:27:28.406Z,47.28
2018-02-23T06:28:02.302Z,44.10
2018-02-23T06:28:36.160Z,40.50
2018-02-23T06:29:10.014Z,46.55
2018-02-23T06:29:43.869Z,42.35
2018-02-23T06:30:17.781Z,44.35
2018-02-23T06:30:52.051Z,45.88
2018-02-23T06:31:25.918Z,39.13
2018-02-23T06:31:59.791Z,43.78
2018-02-23T06:32:33.648Z,46.53
2018-02-23T06:33:07.512Z,43.35
2018-02-23T06:33:41.386Z,39.90
2018-02-23T06:34:15.278Z,46.20
2018-02-23T06:34:49.550Z,45.20
2018-02-23T06:35:23.620Z,55.53
2018-02-23T06:35:57.527Z,52.20
2018-02-23T06:36:31.434Z,50.42
2018-02-23T06:37:05.293Z,49.90
2018-02-23T06:37:39.244Z,45.55
2018-02-23T06:38:13.305Z,45.03
2018-02-23T06:38:47.155Z,50.10
2018-02-23T06:39:21.045Z,51.97
2018-02-23T06:39:54.952Z,45.67
2018-02-23T06:40:28.850Z,47.53
2018-02-23T06:41:02.770Z,59.60
2018-02-23T06:41:36.893Z,44.20
2018-02-23T06:42:10.797Z,47.70
2018-02-23T06:42:45.082Z,51.70
2018-02-23T06:43:19.085Z,42.08
2018-02-23T06:43:52.965Z,47.15
2018-02-23T06:44:26.983Z,48.72
2018-02-23T06:45:00.899Z,50.67
2018-02-23T06:45:34.761Z,48.95
2018-02-23T06:46:08.776Z,51.58
2018-02-23T06:46:42.685Z,54.97
2018-02-23T06:47:18.529Z,48.70
2018-02-23T06:47:52.540Z,45.75
2018-02-23T06:48:26.439Z,51.40
2018-02-23T06:49:00.396Z,48.87
2018-02-23T06:49:34.286Z,51.85
2018-02-23T06:50:08.889Z,48.15
2018-02-23T06:50:42.796Z,48.75
2018-02-23T06:51:16.669Z,51.53
2018-02-23T06:51:50.532Z,49.13
2018-02-23T06:52:24.408Z,52.45
2018-02-23T06:52:58.267Z,52.47
2018-02-23T06:53:32.169Z,47.42
2018-02-23T06:54:06.032Z,50.88
2018-02-23T06:54:39.897Z,49.25
2018-02-23T06:55:13.754Z,48.78
2018-02-23T06:55:47.629Z,56.90
2018-02-23T06:56:21.497Z,50.53
2018-02-23T06:56:55.432Z,54.78
2018-02-23T06:57:29.288Z,54.50
2018-02-23T06:58:03.149Z,52.62
2018-02-23T06:58:37.118Z,52.65
2018-02-23T06:59:11.026Z,61.55
2018-02-23T06:59:45.154Z,50.30
2018-02-23T07:00:19.130Z,53.47
2018-02-23T07:00:52.991Z,52.22
2018-02-23T07:01:26.861Z,55.28
2018-02-23T07:02:00.728Z,48.45
2018-02-23T07:02:34.623Z,55.80
2018-02-23T07:03:08.471Z,57.03
2018-02-23T07:03:42.395Z,49.58
2018-02-23T07:04:16.409Z,53.67
2018-02-23T07:04:50.711Z,51.83
2018-02-23T07:05:25.980Z,54.10
2018-02-23T07:06:00.015Z,56.37
2018-02-23T07:06:34.644Z,57.05
2018-02-23T07:07:08.619Z,55.38
2018-02-23T07:07:42.512Z,52.33
2018-02-23T07:08:16.685Z,53.70
2018-02-23T07:08:50.578Z,50.47
2018-02-23T07:09:24.428Z,55.50
2018-02-23T07:09:58.410Z,49.90
2018-02-23T07:10:32.281Z,58.50
2018-02-23T07:11:06.298Z,58.17
2018-02-23T07:11:40.170Z,61.15
2018-02-23T07:12:14.042Z,58.92
2018-02-23T07:12:47.985Z,53.83
2018-02-23T07:13:21.845Z,54.78
2018-02-23T07:13:55.721Z,58.65
2018-02-23T07:14:29.769Z,57.20
2018-02-23T07:15:03.703Z,57.67
2018-02-23T07:15:37.679Z,61.55
2018-02-23T07:16:11.542Z,64.47
2018-02-23T07:16:45.549Z,53.15
2018-02-23T07:17:19.759Z,62.45
2018-02-23T07:17:53.657Z,61.22